createdAt,value
2018-02-04T00:01:41.845Z,6.60
2018-02-04T00:04:10.061Z,5.90
2018-02-04T00:06:37.537Z,6.07
2018-02-04T00:09:05.011Z,5.57
2018-02-04T00:11:32.473Z,5.33
2018-02-04T00:13:59.958Z,5.13
2018-02-04T00:16:27.426Z,5.10
2018-02-04T00:18:54.944Z,5.80
2018-02-04T00:21:22.403Z,5.20
2018-02-04T00:23:49.861Z,5.53
2018-02-04T00:26:17.363Z,5.50
2018-02-04T00:28:44.835Z,5.77
2018-02-04T00:31:12.346Z,5.63
2018-02-04T00:33:39.830Z,5.33
2018-02-04T00:36:07.305Z,5.80
2018-02-04T00:38:34.783Z,5.60
2018-02-04T00:41:03.957Z,6.50
2018-02-04T00:43:31.430Z,5.60
2018-02-04T00:45:59.655Z,6.77
2018-02-04T00:48:27.127Z,5.73
2018-02-04T00:50:54.585Z,6.10
2018-02-04T00:53:22.061Z,6.63
2018-02-04T00:55:49.524Z,6.17
2018-02-04T00:58:17.093Z,5.90
2018-02-04T01:00:45.343Z,7.27
2018-02-04T01:03:12.827Z,6.57
2018-02-04T01:05:41.076Z,6.37
2018-02-04T01:08:08.533Z,5.97
2018-02-04T01:10:36.042Z,7.20
2018-02-04T01:13:03.505Z,6.13
2018-02-04T01:15:30.966Z,6.90
2018-02-04T01:17:58.457Z,6.33
2018-02-04T01:20:25.922Z,5.83
2018-02-04T01:22:53.416Z,7.20
2018-02-04T01:25:20.874Z,7.37
2018-02-04T01:27:49.091Z,6.80
2018-02-04T01:30:16.560Z,6.23
2018-02-04T01:32:44.050Z,6.43
2018-02-04T01:35:11.508Z,6.70
2018-02-04T01:37:38.982Z,6.37
2018-02-04T01:40:07.202Z,6.97
2018-02-04T01:42:34.994Z,5.93
2018-02-04T01:45:02.714Z,6.10
2018-02-04T01:47:30.163Z,5.90
2018-02-04T01:49:58.437Z,5.63
2018-02-04T01:52:25.894Z,5.50
2018-02-04T01:54:53.378Z,5.63
2018-02-04T01:57:20.920Z,5.17
2018-02-04T01:59:48.386Z,5.53
2018-02-04T02:02:15.870Z,5.30
2018-02-04T02:04:43.345Z,4.63
2018-02-04T02:07:10.842Z,4.27
2018-02-04T02:09:39.073Z,4.30
2018-02-04T02:12:06.565Z,5.73
2018-02-04T02:14:34.801Z,4.60
2018-02-04T02:17:02.258Z,4.50
2018-02-04T02:19:29.782Z,3.97
2018-02-04T02:21:57.353Z,3.27
2018-02-04T02:24:24.810Z,4.07
2018-02-04T02:26:52.266Z,4.10
2018-02-04T02:29:19.853Z,3.67
2018-02-04T02:31:47.334Z,3.63
2018-02-04T02:34:14.802Z,4.30
2018-02-04T02:36:42.274Z,3.83
2018-02-04T02:39:09.750Z,3.50
2018-02-04T02:41:37.234Z,3.87
2018-02-04T02:44:04.722Z,4.30
2018-02-04T02:46:32.209Z,3.60
2018-02-04T02:49:00.481Z,3.97
2018-02-04T02:51:28.705Z,3.93
2018-02-04T02:53:56.182Z,3.67
2018-02-04T02:56:24.417Z,3.90
2018-02-04T02:58:51.885Z,4.20
2018-02-04T03:01:19.364Z,3.40
2018-02-04T03:03:46.850Z,3.60
2018-02-04T03:06:14.314Z,3.60
2018-02-04T03:08:41.765Z,3.50
2018-02-04T03:11:09.266Z,4.03
2018-02-04T03:13:36.718Z,3.87
2018-02-04T03:16:04.200Z,3.80
2018-02-04T03:18:31.662Z,3.77
2018-02-04T03:20:59.149Z,4.00
2018-02-04T03:23:26.604Z,3.80
2018-02-04T03:25:54.086Z,3.77
2018-02-04T03:28:21.558Z,4.20
2018-02-04T03:30:49.057Z,3.23
2018-02-04T03:33:16.512Z,3.80
2018-02-04T03:35:43.974Z,3.80
2018-02-04T03:38:11.453Z,3.80
2018-02-04T03:40:39.670Z,3.50
2018-02-04T03:43:07.145Z,3.57
2018-02-04T03:45:34.609Z,3.60
2018-02-04T03:48:02.182Z,3.40
2018-02-04T03:50:29.658Z,3.50
2018-02-04T03:52:57.161Z,4.00
2018-02-04T03:55:24.613Z,3.87
2018-02-04T03:57:52.094Z,4.03
2018-02-04T04:00:19.561Z,3.70
2018-02-04T04:02:47.021Z,2.90
2018-02-04T04:05:14.497Z,3.80
2018-02-04T04:07:41.955Z,4.50
2018-02-04T04:10:09.590Z,3.77
2018-02-04T04:12:37.061Z,3.87
2018-02-04T04:15:04.517Z,4.30
2018-02-04T04:17:31.996Z,4.33
2018-02-04T04:19:59.458Z,4.10
2018-02-04T04:22:26.933Z,3.67
2018-02-04T04:24:54.394Z,3.07
2018-02-04T04:27:21.869Z,3.43
2018-02-04T04:29:50.098Z,4.30
2018-02-04T04:32:18.358Z,3.30
2018-02-04T04:34:45.833Z,3.60
2018-02-04T04:37:13.310Z,3.53
2018-02-04T04:39:40.802Z,3.40
2018-02-04T04:42:09.022Z,4.20
2018-02-04T04:44:36.509Z,4.00
2018-02-04T04:47:03.972Z,3.40
2018-02-04T04:49:31.460Z,3.33
2018-02-04T04:51:59.684Z,3.93
2018-02-04T04:54:27.192Z,3.40
2018-02-04T04:56:55.434Z,4.07
2018-02-04T04:59:22.909Z,3.80
2018-02-04T05:01:50.364Z,4.53
2018-02-04T05:04:17.841Z,4.10
2018-02-04T05:06:46.059Z,3.90
2018-02-04T05:09:13.589Z,4.20
2018-02-04T05:11:41.073Z,3.90
2018-02-04T05:14:08.543Z,4.07
2018-02-04T05:16:36.005Z,3.87
2018-02-04T05:19:03.517Z,4.20
2018-02-04T05:21:30.982Z,3.90
2018-02-04T05:23:58.433Z,4.27
2018-02-04T05:26:25.917Z,4.30
2018-02-04T05:28:53.401Z,4.70
2018-02-04T05:31:20.885Z,4.27
2018-02-04T05:33:48.344Z,4.10
2018-02-04T05:36:15.829Z,3.50
2018-02-04T05:38:43.313Z,4.17
2018-02-04T05:41:10.772Z,4.10
2018-02-04T05:43:38.262Z,3.80
2018-02-04T05:46:05.742Z,4.40
2018-02-04T05:48:33.202Z,1.97
2018-02-04T05:51:01.560Z,5.40
2018-02-04T05:53:29.057Z,4.57
2018-02-04T05:55:56.537Z,3.80
2018-02-04T05:58:23.991Z,4.57
2018-02-04T06:00:51.473Z,4.53
2018-02-04T06:03:18.957Z,4.90
2018-02-04T06:05:46.417Z,3.60
2018-02-04T06:08:13.874Z,4.20
2018-02-04T06:10:41.341Z,3.80
2018-02-04T06:13:08.798Z,4.27
2018-02-04T06:15:36.295Z,4.83
2018-02-04T06:18:03.745Z,4.73
2018-02-04T06:20:31.214Z,5.00
2018-02-04T06:22:58.703Z,4.60
2018-02-04T06:25:26.179Z,4.20
2018-02-04T06:27:53.629Z,4.30
2018-02-04T06:30:21.109Z,4.50
2018-02-04T06:32:49.354Z,5.40
2018-02-04T06:35:16.809Z,3.80
2018-02-04T06:37:44.281Z,5.30
2018-02-04T06:40:11.767Z,4.50
2018-02-04T06:42:40.017Z,5.17
2018-02-04T06:45:07.473Z,5.23
2018-02-04T06:47:34.992Z,4.33
2018-02-04T06:50:02.433Z,4.40
2018-02-04T06:52:29.951Z,5.10
2018-02-04T06:54:57.397Z,5.17
2018-02-04T06:57:24.866Z,5.90
2018-02-04T06:59:52.337Z,5.67
2018-02-04T07:02:19.812Z,5.13
2018-02-04T07:04:48.066Z,5.20
2018-02-04T07:07:15.541Z,5.07
2018-02-04T07:09:43.014Z,5.07
2018-02-04T07:12:10.485Z,4.53
2018-02-04T07:14:37.963Z,4.17
2018-02-04T07:17:05.430Z,5.37
2018-02-04T07:19:32.915Z,4.70
2018-02-04T07:22:00.405Z,5.43
2018-02-04T07:24:28.632Z,5.57
2018-02-04T07:26:56.101Z,5.13
2018-02-04T07:29:23.605Z,5.47
2018-02-04T07:31:51.077Z,4.93
2018-02-04T07:34:18.530Z,4.87
2018-02-04T09:28:12.527Z,3.03
2018-02-04T09:30:40.192Z,4.90
2018-02-04T09:33:08.000Z,4.10
2018-02-04T09:35:35.893Z,3.77
2018-02-04T09:38:03.578Z,3.70
2018-02-04T09:40:31.261Z,3.23
2018-02-04T09:42:58.978Z,3.80
2018-02-04T09:45:26.833Z,3.70
2018-02-04T09:47:54.523Z,3.70
2018-02-04T09:50:22.136Z,3.63
2018-02-04T09:52:50.631Z,3.70
2018-02-04T09:55:19.219Z,4.00
2018-02-04T09:57:46.944Z,3.80
2018-02-04T10:00:14.663Z,3.20
2018-02-04T10:02:42.541Z,3.40
2018-02-04T10:05:10.400Z,3.17
2018-02-04T10:07:38.041Z,3.00
2018-02-04T10:10:06.743Z,3.20
2018-02-04T10:12:34.529Z,2.80
2018-02-04T10:15:02.190Z,3.27
2018-02-04T10:17:30.177Z,3.40
2018-02-04T10:19:58.738Z,3.67
2018-02-04T10:22:26.511Z,4.43
2018-02-04T10:24:54.204Z,3.60
2018-02-04T10:27:21.904Z,3.47
2018-02-04T10:29:50.209Z,3.20
2018-02-04T10:32:18.029Z,3.30
2018-02-04T10:34:45.802Z,3.50
2018-02-04T10:37:14.103Z,3.73
2018-02-04T10:39:41.956Z,3.10
2018-02-04T10:42:09.554Z,3.90
2018-02-04T10:44:37.412Z,3.13
2018-02-04T10:47:05.308Z,3.47
2018-02-04T10:49:33.336Z,3.50
2018-02-04T10:52:03.036Z,3.60
2018-02-04T10:54:31.485Z,3.80
2018-02-04T10:56:59.338Z,3.40
2018-02-04T10:59:26.989Z,3.23
2018-02-04T11:01:54.690Z,3.53
2018-02-04T11:04:22.418Z,3.20
2018-02-04T11:06:50.229Z,2.73
2018-02-04T11:09:18.690Z,3.77
2018-02-04T11:11:46.548Z,3.50
2018-02-04T11:14:14.390Z,3.40
2018-02-04T11:16:42.124Z,3.73
2018-02-04T11:19:10.575Z,4.00
2018-02-04T11:21:38.510Z,4.37
2018-02-04T11:24:06.349Z,3.70
2018-02-04T11:26:34.163Z,2.47
2018-02-04T11:29:02.075Z,2.63
2018-02-04T11:31:29.918Z,2.77
2018-02-04T11:33:57.678Z,3.10
2018-02-04T11:36:26.200Z,2.10
2018-02-04T11:38:54.209Z,2.73
2018-02-04T11:41:21.982Z,2.10
2018-02-04T11:43:49.779Z,2.10
2018-02-04T11:46:18.474Z,2.90
2018-02-04T11:48:46.586Z,3.07
2018-02-04T11:51:14.526Z,3.20
2018-02-04T11:53:42.530Z,3.73
2018-02-04T11:56:10.406Z,2.60
2018-02-04T11:58:38.307Z,2.90
2018-02-04T12:01:07.153Z,3.87
2018-02-04T12:03:34.988Z,2.80
2018-02-04T12:06:02.973Z,3.67
2018-02-04T12:08:30.850Z,3.10
2018-02-04T12:10:58.485Z,3.17
2018-02-04T12:13:26.423Z,2.93
2018-02-04T12:15:54.166Z,3.23
2018-02-04T12:18:22.093Z,3.50
2018-02-04T12:20:50.160Z,3.50
2018-02-04T12:23:18.092Z,3.13
2018-02-04T12:25:45.836Z,3.40
2018-02-04T12:28:13.961Z,3.20
2018-02-04T12:30:41.971Z,3.10
2018-02-04T12:33:09.861Z,2.40
2018-02-04T12:35:37.901Z,5.40
2018-02-04T12:38:06.015Z,3.80
2018-02-04T12:40:33.820Z,2.77
2018-02-04T12:43:02.629Z,3.93
2018-02-04T12:45:30.689Z,4.40
2018-02-04T12:47:58.694Z,4.00
2018-02-04T12:50:26.797Z,4.30
2018-02-04T12:52:55.366Z,3.70
2018-02-04T12:55:23.384Z,3.53
2018-02-04T12:57:51.013Z,4.37
2018-02-04T13:00:19.889Z,3.77
2018-02-04T13:02:47.826Z,3.20
2018-02-04T13:05:15.721Z,3.00
2018-02-04T13:07:43.724Z,3.87
2018-02-04T13:10:11.645Z,3.50
2018-02-04T13:12:40.409Z,4.13
2018-02-04T13:15:08.322Z,3.53
2018-02-04T13:17:36.184Z,3.90
2018-02-04T13:20:03.943Z,3.70
2018-02-04T13:22:31.855Z,2.97
2018-02-04T13:24:59.725Z,2.67
2018-02-04T13:27:27.756Z,3.70
2018-02-04T13:29:55.839Z,3.80
2018-02-04T13:32:23.811Z,3.30
2018-02-04T13:34:51.598Z,3.90
2018-02-04T13:37:20.236Z,4.27
2018-02-04T13:39:48.199Z,3.70
2018-02-04T13:42:16.013Z,4.03
2018-02-04T13:44:43.860Z,3.90
2018-02-04T13:47:11.830Z,3.57
2018-02-04T13:49:40.111Z,3.47
2018-02-04T13:52:08.270Z,3.57
2018-02-04T13:54:35.979Z,3.40
2018-02-04T13:57:04.459Z,3.90
2018-02-04T13:59:33.087Z,3.07
2018-02-04T14:02:00.815Z,3.23
2018-02-04T14:04:29.325Z,3.80
2018-02-04T14:06:57.125Z,3.40
2018-02-04T14:09:24.962Z,3.43
2018-02-04T14:11:52.688Z,3.83
2018-02-04T14:14:21.322Z,3.87
2018-02-04T14:16:49.050Z,3.40
2018-02-04T14:19:17.913Z,4.47
2018-02-04T14:21:46.523Z,4.57
2018-02-04T14:24:14.280Z,4.43
2018-02-04T14:26:42.932Z,4.53
2018-02-04T14:29:11.040Z,4.40
2018-02-04T14:31:39.828Z,4.10
2018-02-04T14:34:07.739Z,4.50
2018-02-04T14:36:35.701Z,4.40
2018-02-04T14:39:03.577Z,3.30
2018-02-04T14:41:31.849Z,4.40
2018-02-04T14:43:59.701Z,4.27
2018-02-04T14:46:28.063Z,4.50
2018-02-04T14:48:55.968Z,3.90
2018-02-04T14:51:23.865Z,4.70
2018-02-04T14:53:52.392Z,4.60
2018-02-04T14:56:21.417Z,4.17
2018-02-04T14:58:49.379Z,4.40
2018-02-04T15:01:17.285Z,4.47
2018-02-04T15:03:45.091Z,4.63
2018-02-04T15:06:13.801Z,4.47
2018-02-04T15:08:41.682Z,5.27
2018-02-04T15:11:09.425Z,4.50
2018-02-04T15:13:37.352Z,5.50
2018-02-04T15:16:05.207Z,5.40
2018-02-04T15:18:33.193Z,4.37
2018-02-04T15:21:03.966Z,5.27
2018-02-04T15:23:31.968Z,6.30
2018-02-04T15:25:59.889Z,4.30
2018-02-04T15:28:27.654Z,4.30
2018-02-04T15:30:56.206Z,4.50
2018-02-04T15:33:24.055Z,4.63
2018-02-04T15:35:52.583Z,3.87
2018-02-04T15:38:21.032Z,5.17
2018-02-04T15:40:48.968Z,4.03
2018-02-04T15:43:18.037Z,4.63
2018-02-04T15:45:46.483Z,4.60
2018-02-04T15:48:14.322Z,4.43
2018-02-04T15:50:42.845Z,5.20
2018-02-04T15:53:10.746Z,4.73
2018-02-04T15:55:38.467Z,4.87
2018-02-04T15:58:06.301Z,5.60
2018-02-04T16:00:33.922Z,5.77
2018-02-04T16:03:02.530Z,4.97
2018-02-04T16:05:30.196Z,5.20
2018-02-04T16:07:58.041Z,5.67
2018-02-04T16:10:25.883Z,5.50
2018-02-04T16:12:53.771Z,6.30
2018-02-04T16:15:21.604Z,5.40
2018-02-04T16:17:49.435Z,5.57
2018-02-04T16:20:17.246Z,5.10
2018-02-04T16:22:45.815Z,7.10
2018-02-04T16:25:13.709Z,7.43
2018-02-04T16:27:42.156Z,6.50
2018-02-04T16:30:09.954Z,7.30
2018-02-04T16:32:38.484Z,7.40
2018-02-04T16:35:06.336Z,5.53
2018-02-04T16:37:34.092Z,5.93
2018-02-04T16:40:01.880Z,5.30
2018-02-04T16:42:29.643Z,5.90
2018-02-04T16:44:57.118Z,6.33
2018-02-04T16:47:24.593Z,6.50
2018-02-04T16:49:52.548Z,5.30
2018-02-04T16:52:20.339Z,5.00
2018-02-04T16:54:48.139Z,5.40
2018-02-04T16:57:15.735Z,5.53
2018-02-04T16:59:43.465Z,6.37
2018-02-04T17:02:11.887Z,5.73
2018-02-04T17:04:39.627Z,9.13
2018-02-04T17:07:07.277Z,8.13
2018-02-04T17:09:35.017Z,7.50
2018-02-04T17:12:02.800Z,7.63
2018-02-04T17:14:30.514Z,6.90
2018-02-04T17:16:58.241Z,5.50
2018-02-04T17:19:25.840Z,6.20
2018-02-04T17:21:54.321Z,4.93
2018-02-04T17:24:22.236Z,6.27
2018-02-04T17:26:49.859Z,6.40
2018-02-04T17:29:17.646Z,5.30
2018-02-04T17:31:45.567Z,6.77
2018-02-04T17:34:13.422Z,5.20
2018-02-04T17:36:41.113Z,6.80
2018-02-04T17:39:08.791Z,6.70
2018-02-04T17:41:36.760Z,6.30
2018-02-04T17:44:04.663Z,6.30
2018-02-04T17:46:33.094Z,6.87
2018-02-04T17:49:01.674Z,6.80
2018-02-04T17:51:29.355Z,6.70
2018-02-04T17:53:57.168Z,9.60
2018-02-04T17:56:24.973Z,7.73
2018-02-04T17:58:52.716Z,9.90
2018-02-04T18:01:20.630Z,9.57
2018-02-04T18:03:48.364Z,9.30
2018-02-04T18:06:16.199Z,10.70
2018-02-04T18:08:44.020Z,8.77
2018-02-04T18:11:11.724Z,8.50
2018-02-04T18:13:39.744Z,8.70
2018-02-04T18:16:07.652Z,10.13
2018-02-04T18:18:35.605Z,9.40
2018-02-04T18:21:03.248Z,9.23
2018-02-04T18:23:31.033Z,9.07
2018-02-04T18:25:58.746Z,9.20
2018-02-04T18:28:26.587Z,9.07
2018-02-04T18:30:54.404Z,9.90
2018-02-04T18:33:22.210Z,8.27
2018-02-04T18:35:49.886Z,8.27
2018-02-04T18:38:18.257Z,8.47
2018-02-04T18:40:46.408Z,8.90
2018-02-04T18:43:14.166Z,8.90
2018-02-04T18:45:41.969Z,8.40
2018-02-04T18:48:09.642Z,8.30
2018-02-04T18:50:37.378Z,9.33
2018-02-04T18:53:05.114Z,8.57
2018-02-04T18:55:32.861Z,8.57
2018-02-04T18:58:00.559Z,8.00
2018-02-04T19:00:28.292Z,10.20
2018-02-04T19:02:56.165Z,9.67
2018-02-04T19:05:23.853Z,10.97
2018-02-04T19:07:51.600Z,8.60
2018-02-04T19:10:19.458Z,9.97
2018-02-04T19:12:47.236Z,10.47
2018-02-04T19:15:15.142Z,9.63
2018-02-04T19:17:43.744Z,9.13
2018-02-04T19:20:11.511Z,10.13
2018-02-04T19:22:40.171Z,9.07
2018-02-04T19:25:07.888Z,8.97
2018-02-04T19:27:35.554Z,8.03
2018-02-04T19:30:03.272Z,9.37
2018-02-04T19:32:31.123Z,8.37
2018-02-04T19:34:59.063Z,9.70
2018-02-04T19:37:27.011Z,9.53
2018-02-04T19:39:54.672Z,10.23
2018-02-04T19:42:22.707Z,8.97
2018-02-04T19:44:50.645Z,10.03
2018-02-04T19:47:18.585Z,10.07
2018-02-04T19:49:46.523Z,9.37
2018-02-04T19:52:14.240Z,9.17
2018-02-04T19:54:42.279Z,10.60
2018-02-04T19:57:10.319Z,8.97
2018-02-04T19:59:38.978Z,10.63
2018-02-04T20:02:06.988Z,10.27
2018-02-04T20:04:34.890Z,9.97
2018-02-04T20:07:02.724Z,10.47
2018-02-04T20:09:30.743Z,10.80
2018-02-04T20:11:58.597Z,11.43
2018-02-04T20:14:26.392Z,10.53
2018-02-04T20:16:54.220Z,10.87
2018-02-04T20:19:21.885Z,10.77
2018-02-04T20:21:49.662Z,10.33
2018-02-04T20:24:17.590Z,10.47
2018-02-04T20:26:45.470Z,9.83
2018-02-04T20:29:13.203Z,10.30
2018-02-04T20:31:41.174Z,9.97
2018-02-04T20:34:20.754Z,10.30
2018-02-04T20:36:48.532Z,9.03
2018-02-04T20:39:16.509Z,10.90
2018-02-04T20:41:44.708Z,10.97
2018-02-04T20:44:12.619Z,10.43
2018-02-04T20:46:40.654Z,9.80
2018-02-04T20:49:08.603Z,10.60
2018-02-04T20:51:36.610Z,9.50
2018-02-04T20:54:04.501Z,10.73
2018-02-04T20:56:32.294Z,9.90
2018-02-04T20:59:00.056Z,10.30
2018-02-04T21:01:28.408Z,11.00
2018-02-04T21:03:56.502Z,11.37
2018-02-04T21:06:24.594Z,12.03
2018-02-04T21:08:52.397Z,10.87
2018-02-04T21:11:19.957Z,14.50
2018-02-04T21:13:47.735Z,12.77
2018-02-04T21:16:15.437Z,13.13
2018-02-04T21:18:43.446Z,12.60
2018-02-04T21:21:11.212Z,11.37
2018-02-04T21:23:38.982Z,12.23
2018-02-04T21:26:07.058Z,11.67
2018-02-04T21:28:34.676Z,12.57
2018-02-04T21:31:02.453Z,13.33
2018-02-04T21:33:30.356Z,13.30
2018-02-04T21:35:58.742Z,13.07
2018-02-04T21:38:27.579Z,13.43
2018-02-04T21:40:55.397Z,11.30
2018-02-04T21:43:23.365Z,13.23
2018-02-04T21:45:52.083Z,11.73
2018-02-04T21:48:19.773Z,11.40
2018-02-04T21:50:47.440Z,11.77
2018-02-04T21:53:15.204Z,11.97
2018-02-04T21:55:42.974Z,12.33
2018-02-04T21:58:10.678Z,9.87
2018-02-04T22:00:39.544Z,9.90
2018-02-04T22:03:07.299Z,9.87
2018-02-04T22:05:35.152Z,8.30
2018-02-04T22:08:02.853Z,9.87
2018-02-04T22:10:30.700Z,8.93
2018-02-04T22:12:58.565Z,8.90
2018-02-04T22:15:26.353Z,10.20
2018-02-04T22:17:53.993Z,9.80
2018-02-04T22:20:21.745Z,9.30
2018-02-04T22:22:49.399Z,9.03
2018-02-04T22:25:17.089Z,10.90
2018-02-04T22:27:44.970Z,10.50
2018-02-04T22:30:12.693Z,9.70
2018-02-04T22:32:40.405Z,10.40
2018-02-04T22:35:08.116Z,9.67
2018-02-04T22:37:35.856Z,9.50
2018-02-04T22:40:03.687Z,9.60
2018-02-04T22:42:31.752Z,9.53
2018-02-04T22:44:59.418Z,9.70
2018-02-04T22:47:27.190Z,9.47
2018-02-04T22:49:55.886Z,10.40
2018-02-04T22:52:23.764Z,9.90
2018-02-04T22:54:52.161Z,11.53
2018-02-04T22:57:19.873Z,11.50
2018-02-04T22:59:47.709Z,11.53
2018-02-04T23:02:15.463Z,13.30
2018-02-04T23:04:43.142Z,11.37
2018-02-04T23:07:10.971Z,12.00
2018-02-04T23:09:39.695Z,12.60
2018-02-04T23:12:07.413Z,11.30
2018-02-04T23:14:35.162Z,12.23
2018-02-04T23:17:02.823Z,12.67
2018-02-04T23:19:30.559Z,12.70
2018-02-04T23:21:58.197Z,13.07
2018-02-04T23:24:26.010Z,12.50
2018-02-04T23:26:53.814Z,12.93
2018-02-04T23:29:21.558Z,13.53
2018-02-04T23:31:49.357Z,14.13
2018-02-04T23:34:17.210Z,12.70
2018-02-04T23:36:44.935Z,13.10
2018-02-04T23:39:12.661Z,14.40
2018-02-04T23:41:41.015Z,13.80
2018-02-04T23:44:08.644Z,12.97
2018-02-04T23:46:36.445Z,13.40
2018-02-04T23:49:04.899Z,14.00
2018-02-04T23:51:32.474Z,13.13
2018-02-04T23:54:00.213Z,13.83
2018-02-04T23:56:27.949Z,14.90
2018-02-04T23:58:55.687Z,13.83
